createdAt,value
2024-05-09T00:00:40.584Z,2.40
2024-05-09T00:01:38.989Z,2.10
2024-05-09T00:02:38.992Z,2.30
2024-05-09T00:03:39.084Z,2.40
2024-05-09T00:04:39.018Z,2.30
2024-05-09T00:05:39.126Z,2.50
2024-05-09T00:06:38.886Z,2.50
2024-05-09T00:07:38.847Z,2.30
2024-05-09T00:08:38.941Z,1.90
2024-05-09T00:09:38.829Z,2.20
2024-05-09T00:10:40.040Z,2.50
2024-05-09T00:11:38.904Z,2.30
2024-05-09T00:12:38.776Z,2.50
2024-05-09T00:13:38.828Z,2.40
2024-05-09T00:14:39.069Z,2.30
2024-05-09T00:15:38.842Z,2.30
2024-05-09T00:16:38.722Z,2.10
2024-05-09T00:17:38.970Z,2.30
2024-05-09T00:18:38.812Z,2.40
2024-05-09T00:19:38.956Z,2.40
2024-05-09T00:20:40.948Z,2.30
2024-05-09T00:21:38.653Z,2.30
2024-05-09T00:22:38.786Z,2.20
2024-05-09T00:23:38.734Z,2.00
2024-05-09T00:24:38.671Z,2.30
2024-05-09T00:25:38.663Z,2.60
2024-05-09T00:26:38.723Z,2.60
2024-05-09T00:27:38.644Z,2.60
2024-05-09T00:28:38.670Z,2.40
2024-05-09T00:29:38.657Z,2.60
2024-05-09T00:30:38.674Z,2.30
2024-05-09T00:31:38.576Z,2.60
2024-05-09T00:32:38.755Z,2.70
2024-05-09T00:33:38.787Z,2.20
2024-05-09T00:34:38.512Z,2.60
2024-05-09T00:35:38.991Z,2.60
2024-05-09T00:36:38.533Z,2.80
2024-05-09T00:37:38.499Z,2.70
2024-05-09T00:38:38.526Z,2.60
2024-05-09T00:39:38.501Z,2.60
2024-05-09T00:40:41.123Z,2.90
2024-05-09T00:41:38.532Z,3.00
2024-05-09T00:42:38.474Z,2.70
2024-05-09T00:43:38.418Z,2.60
2024-05-09T00:44:38.513Z,2.60
2024-05-09T00:45:38.408Z,3.10
2024-05-09T00:46:38.416Z,2.70
2024-05-09T00:47:38.534Z,2.60
2024-05-09T00:48:38.590Z,2.80
2024-05-09T00:49:38.454Z,3.30
2024-05-09T00:50:38.886Z,2.80
2024-05-09T00:51:38.343Z,3.00
2024-05-09T00:52:38.319Z,2.60
2024-05-09T00:53:38.408Z,2.40
2024-05-09T00:54:38.299Z,2.50
2024-05-09T00:55:38.335Z,2.60
2024-05-09T00:56:38.434Z,2.90
2024-05-09T00:57:38.281Z,2.70
2024-05-09T00:58:38.243Z,2.90
2024-05-09T00:59:38.437Z,2.90
2024-05-09T01:00:40.487Z,2.40
2024-05-09T01:01:38.275Z,2.70
2024-05-09T01:02:38.464Z,3.00
2024-05-09T01:03:38.598Z,3.10
2024-05-09T01:04:38.707Z,2.60
2024-05-09T01:05:38.239Z,2.40
2024-05-09T01:06:38.153Z,2.70
2024-05-09T01:07:38.134Z,2.90
2024-05-09T01:08:38.331Z,2.70
2024-05-09T01:09:38.139Z,2.80
2024-05-09T01:10:38.125Z,2.80
2024-05-09T01:11:38.329Z,2.80
2024-05-09T01:12:38.121Z,2.70
2024-05-09T01:13:38.081Z,2.80
2024-05-09T01:14:38.180Z,2.70
2024-05-09T01:15:38.066Z,2.90
2024-05-09T01:16:38.043Z,2.50
2024-05-09T01:17:38.229Z,2.80
2024-05-09T01:18:38.167Z,2.80
2024-05-09T01:19:38.074Z,3.10
2024-05-09T01:20:42.295Z,2.60
2024-05-09T01:21:39.076Z,2.90
2024-05-09T01:22:37.984Z,2.90
2024-05-09T01:23:38.100Z,2.90
2024-05-09T01:24:37.950Z,3.10
2024-05-09T01:25:38.064Z,2.80
2024-05-09T01:26:38.011Z,2.70
2024-05-09T01:27:37.957Z,2.80
2024-05-09T01:28:37.936Z,2.70
2024-05-09T01:29:37.959Z,2.70
2024-05-09T01:30:38.574Z,2.80
2024-05-09T01:31:37.929Z,2.70
2024-05-09T01:32:38.004Z,2.80
2024-05-09T01:33:38.352Z,2.80
2024-05-09T01:34:37.887Z,2.70
2024-05-09T01:35:38.053Z,3.20
2024-05-09T01:36:37.820Z,2.70
2024-05-09T01:37:37.846Z,2.90
2024-05-09T01:38:37.812Z,2.90
2024-05-09T01:39:37.844Z,2.70
2024-05-09T01:40:40.015Z,2.60
2024-05-09T01:41:37.772Z,2.70
2024-05-09T01:42:37.775Z,3.10
2024-05-09T01:43:37.741Z,2.60
2024-05-09T01:44:37.929Z,3.10
2024-05-09T01:45:37.787Z,2.50
2024-05-09T01:46:37.751Z,2.90
2024-05-09T01:47:37.833Z,2.90
2024-05-09T01:48:37.809Z,3.30
2024-05-09T01:49:37.737Z,2.60
2024-05-09T01:50:41.190Z,2.90
2024-05-09T01:51:38.670Z,3.00
2024-05-09T01:52:37.642Z,2.80
2024-05-09T01:53:37.716Z,2.90
2024-05-09T01:54:38.224Z,2.70
2024-05-09T01:55:37.689Z,3.10
2024-05-09T01:56:37.700Z,2.90
2024-05-09T01:57:37.591Z,2.90
2024-05-09T01:58:37.603Z,2.90
2024-05-09T01:59:37.652Z,2.80
2024-05-09T02:00:41.269Z,3.10
2024-05-09T02:01:55.804Z,2.80
2024-05-09T02:02:38.701Z,3.00
2024-05-09T02:03:37.782Z,2.80
2024-05-09T02:04:37.624Z,3.00
2024-05-09T02:05:37.551Z,2.80
2024-05-09T02:06:37.642Z,3.30
2024-05-09T02:07:37.532Z,3.10
2024-05-09T02:08:37.532Z,2.80
2024-05-09T02:09:37.513Z,2.90
2024-05-09T02:10:37.470Z,2.60
2024-05-09T02:11:37.538Z,2.80
2024-05-09T02:12:37.462Z,2.80
2024-05-09T02:13:37.433Z,2.80
2024-05-09T02:14:37.558Z,2.80
2024-05-09T02:15:37.406Z,2.80
2024-05-09T02:16:37.382Z,2.90
2024-05-09T02:17:37.658Z,2.90
2024-05-09T02:18:37.487Z,2.80
2024-05-09T02:19:37.414Z,2.80
2024-05-09T02:20:37.446Z,3.00
2024-05-09T02:21:37.408Z,2.60
2024-05-09T02:22:37.328Z,2.60
2024-05-09T02:23:37.327Z,2.80
2024-05-09T02:24:37.315Z,2.70
2024-05-09T02:25:37.279Z,2.70
2024-05-09T02:26:37.319Z,2.70
2024-05-09T02:27:37.306Z,2.90
2024-05-09T02:28:37.294Z,3.00
2024-05-09T02:29:37.363Z,2.60
2024-05-09T02:30:40.609Z,2.70
2024-05-09T02:31:37.213Z,2.80
2024-05-09T02:32:37.426Z,2.50
2024-05-09T02:33:37.638Z,2.80
2024-05-09T02:34:37.238Z,2.70
2024-05-09T02:35:37.214Z,3.00
2024-05-09T02:36:37.148Z,3.00
2024-05-09T02:37:37.197Z,2.90
2024-05-09T02:38:37.346Z,2.90
2024-05-09T02:39:37.146Z,2.80
2024-05-09T02:40:39.118Z,2.70
2024-05-09T02:41:37.133Z,2.70
2024-05-09T02:42:37.119Z,2.50
2024-05-09T02:43:37.093Z,2.70
2024-05-09T02:44:37.090Z,2.60
2024-05-09T02:45:37.113Z,2.80
2024-05-09T02:46:37.063Z,2.90
2024-05-09T02:47:37.305Z,2.90
2024-05-09T02:48:37.354Z,2.70
2024-05-09T02:49:37.166Z,2.90
2024-05-09T02:50:39.490Z,3.00
2024-05-09T02:51:36.984Z,2.80
2024-05-09T02:52:37.063Z,2.80
2024-05-09T02:53:37.180Z,2.90
2024-05-09T02:54:36.976Z,2.90
2024-05-09T02:55:36.956Z,2.70
2024-05-09T02:56:37.111Z,2.90
2024-05-09T02:57:36.961Z,3.40
2024-05-09T02:58:36.942Z,2.80
2024-05-09T02:59:36.998Z,2.80
2024-05-09T03:00:40.404Z,3.00
2024-05-09T03:01:38.020Z,2.40
2024-05-09T03:02:36.983Z,3.00
2024-05-09T03:03:37.200Z,2.80
2024-05-09T03:04:36.878Z,2.70
2024-05-09T03:05:37.302Z,2.70
2024-05-09T03:06:36.865Z,2.60
2024-05-09T03:07:36.812Z,2.90
2024-05-09T03:08:36.860Z,2.80
2024-05-09T03:09:36.820Z,2.50
2024-05-09T03:10:38.800Z,2.80
2024-05-09T03:11:36.936Z,2.60
2024-05-09T03:12:39.028Z,2.80
2024-05-09T03:13:36.736Z,2.90
2024-05-09T03:14:36.757Z,2.70
2024-05-09T03:15:36.955Z,2.80
2024-05-09T03:16:36.762Z,3.20
2024-05-09T03:17:37.056Z,2.70
2024-05-09T03:18:36.848Z,3.20
2024-05-09T03:19:36.765Z,2.70
2024-05-09T03:20:37.291Z,2.50
2024-05-09T03:21:36.647Z,2.90
2024-05-09T03:22:36.640Z,2.40
2024-05-09T03:23:36.698Z,3.00
2024-05-09T03:24:36.693Z,2.90
2024-05-09T03:25:36.700Z,2.80
2024-05-09T03:26:36.666Z,3.30
2024-05-09T03:27:36.592Z,2.80
2024-05-09T03:28:36.624Z,2.70
2024-05-09T03:29:36.598Z,2.80
2024-05-09T03:30:41.457Z,2.60
2024-05-09T03:31:37.589Z,2.90
2024-05-09T03:32:36.719Z,2.90
2024-05-09T03:33:36.877Z,2.80
2024-05-09T03:34:36.511Z,2.80
2024-05-09T03:35:36.544Z,2.90
2024-05-09T03:36:36.505Z,2.90
2024-05-09T03:37:36.475Z,2.70
2024-05-09T03:38:36.567Z,2.70
2024-05-09T03:39:36.484Z,2.70
2024-05-09T03:40:36.446Z,2.90
2024-05-09T03:41:36.492Z,2.90
2024-05-09T03:42:36.440Z,2.60
2024-05-09T03:43:36.424Z,3.10
2024-05-09T03:44:36.411Z,2.90
2024-05-09T03:45:36.406Z,2.80
2024-05-09T03:46:36.373Z,3.20
2024-05-09T03:47:36.504Z,3.30
2024-05-09T03:48:36.491Z,3.00
2024-05-09T03:49:36.456Z,2.80
2024-05-09T03:50:37.246Z,2.70
2024-05-09T03:51:36.329Z,2.50
2024-05-09T03:52:36.339Z,3.00
2024-05-09T03:53:36.387Z,3.20
2024-05-09T03:54:36.310Z,2.70
2024-05-09T03:55:36.277Z,2.80
2024-05-09T03:56:36.353Z,2.80
2024-05-09T03:57:36.412Z,2.90
2024-05-09T03:58:36.254Z,2.60
2024-05-09T03:59:36.269Z,2.60
2024-05-09T04:00:39.046Z,2.70
2024-05-09T04:01:36.304Z,2.70
2024-05-09T04:02:36.307Z,2.80
2024-05-09T04:03:36.400Z,2.70
2024-05-09T04:04:36.274Z,2.80
2024-05-09T04:05:36.311Z,3.10
2024-05-09T04:06:36.180Z,2.30
2024-05-09T04:07:36.122Z,3.20
2024-05-09T04:08:36.190Z,2.80
2024-05-09T04:09:36.095Z,3.00
2024-05-09T04:10:36.150Z,3.00
2024-05-09T04:11:36.184Z,3.00
2024-05-09T04:12:36.074Z,2.60
2024-05-09T04:13:36.119Z,3.00
2024-05-09T04:14:36.171Z,3.00
2024-05-09T04:15:36.043Z,2.80
2024-05-09T04:16:36.035Z,3.00
2024-05-09T04:17:36.373Z,2.70
2024-05-09T04:18:36.143Z,2.80
2024-05-09T04:19:36.040Z,2.90
2024-05-09T04:20:39.420Z,3.00
2024-05-09T04:21:36.999Z,3.10
2024-05-09T04:22:35.987Z,2.90
2024-05-09T04:23:36.051Z,2.60
2024-05-09T04:24:36.051Z,2.60
2024-05-09T04:25:35.957Z,3.00
2024-05-09T04:26:35.954Z,2.80
2024-05-09T04:27:35.943Z,2.90
2024-05-09T04:28:35.890Z,3.00
2024-05-09T04:29:36.012Z,2.90
2024-05-09T04:30:39.331Z,3.00
2024-05-09T04:31:36.891Z,2.90
2024-05-09T04:32:36.094Z,3.10
2024-05-09T04:33:36.204Z,3.10
2024-05-09T04:34:35.859Z,3.00
2024-05-09T04:35:35.931Z,3.10
2024-05-09T04:36:35.804Z,2.70
2024-05-09T04:37:35.782Z,2.80
2024-05-09T04:38:35.817Z,3.30
2024-05-09T04:39:35.764Z,2.90
2024-05-09T04:40:37.255Z,3.10
2024-05-09T04:41:35.868Z,3.00
2024-05-09T04:42:35.771Z,2.90
2024-05-09T04:43:35.810Z,3.00
2024-05-09T04:44:35.790Z,3.10
2024-05-09T04:45:35.996Z,2.80
2024-05-09T04:46:35.714Z,3.10
2024-05-09T04:47:35.931Z,2.60
2024-05-09T04:48:35.732Z,3.10
2024-05-09T04:49:35.786Z,3.30
2024-05-09T04:50:38.695Z,3.20
2024-05-09T04:51:35.637Z,2.90
2024-05-09T04:52:35.669Z,3.00
2024-05-09T04:53:35.715Z,3.00
2024-05-09T04:54:36.654Z,3.00
2024-05-09T04:55:35.579Z,3.30
2024-05-09T04:56:35.615Z,3.60
2024-05-09T04:57:35.590Z,3.20
2024-05-09T04:58:35.611Z,3.10
2024-05-09T04:59:35.580Z,3.30
2024-05-09T05:00:37.653Z,3.30
2024-05-09T05:01:35.601Z,3.20
2024-05-09T05:02:35.609Z,3.10
2024-05-09T05:03:35.697Z,3.40
2024-05-09T05:04:35.543Z,3.40
2024-05-09T05:05:35.557Z,3.30
2024-05-09T05:06:35.479Z,3.60
2024-05-09T05:07:35.484Z,3.50
2024-05-09T05:08:35.572Z,3.80
2024-05-09T05:09:35.439Z,3.60
2024-05-09T05:10:36.815Z,3.90
2024-05-09T05:11:35.740Z,4.00
2024-05-09T05:12:35.759Z,3.50
2024-05-09T05:13:37.865Z,3.70
2024-05-09T05:14:35.442Z,3.80
2024-05-09T05:15:35.363Z,3.50
2024-05-09T05:16:35.370Z,3.70
2024-05-09T05:17:35.560Z,3.30
2024-05-09T05:18:35.436Z,3.50
2024-05-09T05:19:35.694Z,3.80
2024-05-09T05:20:35.381Z,3.50
2024-05-09T05:21:35.317Z,3.50
2024-05-09T05:22:35.270Z,3.40
2024-05-09T05:23:35.449Z,3.50
2024-05-09T05:24:35.268Z,4.00
2024-05-09T05:25:35.292Z,4.00
2024-05-09T05:26:35.364Z,3.60
2024-05-09T05:27:35.223Z,3.80
2024-05-09T05:28:35.226Z,4.20
2024-05-09T05:29:35.381Z,3.80
2024-05-09T05:30:35.393Z,4.30
2024-05-09T05:31:35.248Z,4.30
2024-05-09T05:32:35.285Z,3.80
2024-05-09T05:33:35.357Z,4.00
2024-05-09T05:34:35.171Z,4.40
2024-05-09T05:35:35.281Z,4.70
2024-05-09T05:36:35.160Z,4.60
2024-05-09T05:37:35.134Z,4.10
2024-05-09T05:38:35.138Z,4.20
2024-05-09T05:39:35.230Z,4.80
2024-05-09T05:40:43.199Z,4.20
2024-05-09T05:41:35.091Z,4.20
2024-05-09T05:42:35.037Z,4.60
2024-05-09T05:43:35.067Z,4.50
2024-05-09T05:44:35.083Z,4.80
2024-05-09T05:45:35.061Z,4.70
2024-05-09T05:46:35.008Z,4.30
2024-05-09T05:47:35.269Z,5.10
2024-05-09T05:48:35.131Z,4.50
2024-05-09T05:49:35.062Z,4.90
2024-05-09T05:50:37.384Z,4.30
2024-05-09T05:51:34.948Z,4.60
2024-05-09T05:52:34.941Z,4.80
2024-05-09T05:53:35.086Z,4.30
2024-05-09T05:54:34.932Z,4.50
2024-05-09T05:55:34.910Z,4.80
2024-05-09T05:56:34.984Z,5.10
2024-05-09T05:57:34.876Z,4.90
2024-05-09T05:58:34.871Z,4.80
2024-05-09T05:59:34.984Z,4.70
2024-05-09T06:00:38.553Z,5.00
2024-05-09T06:01:35.880Z,4.80
2024-05-09T06:02:34.938Z,5.00
2024-05-09T06:03:34.951Z,4.60
2024-05-09T06:04:34.849Z,4.90
2024-05-09T06:05:34.851Z,4.50
2024-05-09T06:06:34.800Z,4.80
2024-05-09T06:07:34.794Z,5.20
2024-05-09T06:08:34.876Z,5.10
2024-05-09T06:09:34.750Z,4.80
2024-05-09T06:10:38.880Z,5.20
2024-05-09T06:11:35.796Z,5.10
2024-05-09T06:12:34.720Z,4.80
2024-05-09T06:13:34.707Z,5.10
2024-05-09T06:14:34.862Z,5.00
2024-05-09T06:15:34.729Z,4.60
2024-05-09T06:16:34.684Z,4.60
2024-05-09T06:17:34.833Z,4.60
2024-05-09T06:18:34.980Z,4.90
2024-05-09T06:19:34.685Z,4.40
2024-05-09T06:20:37.368Z,4.90
2024-05-09T06:21:34.824Z,4.60
2024-05-09T06:22:34.633Z,4.30
2024-05-09T06:23:34.784Z,4.80
2024-05-09T06:24:34.585Z,4.90
2024-05-09T06:25:34.662Z,4.40
2024-05-09T06:26:34.632Z,4.50
2024-05-09T06:27:34.596Z,4.10
2024-05-09T06:28:34.522Z,4.80
2024-05-09T06:29:34.581Z,4.50
2024-05-09T06:30:38.962Z,4.80
2024-05-09T06:31:35.600Z,4.50
2024-05-09T06:32:34.535Z,4.70
2024-05-09T06:33:34.763Z,4.30
2024-05-09T06:34:34.659Z,4.50
2024-05-09T06:35:34.758Z,4.30
2024-05-09T06:36:34.468Z,4.40
2024-05-09T06:37:34.439Z,4.80
2024-05-09T06:38:34.577Z,4.40
2024-05-09T06:39:34.422Z,4.50
2024-05-09T06:40:38.305Z,4.60
2024-05-09T06:41:35.428Z,4.50
2024-05-09T06:42:34.384Z,4.40
2024-05-09T06:43:34.362Z,4.30
2024-05-09T06:44:34.392Z,4.20
2024-05-09T06:45:34.354Z,4.40
2024-05-09T06:46:34.318Z,4.20
2024-05-09T06:47:34.503Z,4.40
2024-05-09T06:48:34.500Z,4.20
2024-05-09T06:49:34.325Z,4.20
2024-05-09T06:50:37.785Z,4.40
2024-05-09T06:51:35.272Z,4.30
2024-05-09T06:52:34.253Z,4.10
2024-05-09T06:53:34.422Z,4.10
2024-05-09T06:54:34.250Z,3.90
2024-05-09T06:55:34.213Z,4.10
2024-05-09T06:56:34.255Z,3.90
2024-05-09T06:57:34.196Z,4.00
2024-05-09T06:58:34.181Z,4.00
2024-05-09T06:59:34.388Z,4.10
2024-05-09T07:00:38.679Z,4.00
2024-05-09T07:01:35.213Z,3.80
2024-05-09T07:02:34.286Z,4.20
2024-05-09T07:03:34.276Z,3.90
2024-05-09T07:04:34.240Z,3.90
2024-05-09T07:05:34.190Z,4.00
2024-05-09T07:06:34.098Z,3.90
2024-05-09T07:07:34.078Z,3.90
2024-05-09T07:08:34.282Z,4.10
2024-05-09T07:09:34.070Z,4.00
2024-05-09T07:10:35.666Z,4.00
2024-05-09T07:11:34.241Z,4.10
2024-05-09T07:12:34.199Z,4.00
2024-05-09T07:13:34.022Z,4.00
2024-05-09T07:14:36.028Z,3.80
2024-05-09T07:15:33.994Z,4.10
2024-05-09T07:16:33.985Z,3.90
2024-05-09T07:17:34.278Z,4.20
2024-05-09T07:18:34.103Z,4.10
2024-05-09T07:19:34.026Z,4.40
2024-05-09T07:20:35.137Z,4.20
2024-05-09T07:21:33.961Z,4.70
2024-05-09T07:22:33.933Z,4.80
2024-05-09T07:23:34.234Z,4.30
2024-05-09T07:24:33.898Z,4.40
2024-05-09T07:25:33.886Z,4.40
2024-05-09T07:26:33.961Z,4.30
2024-05-09T07:27:33.986Z,4.20
2024-05-09T07:28:33.914Z,4.60
2024-05-09T07:29:36.281Z,4.50
2024-05-09T07:30:34.958Z,4.60
2024-05-09T07:31:33.827Z,4.60
2024-05-09T07:32:34.012Z,4.70
2024-05-09T07:33:33.943Z,4.50
2024-05-09T07:34:33.922Z,3.80
2024-05-09T07:35:33.990Z,3.90
2024-05-09T07:36:33.770Z,4.40
2024-05-09T07:37:33.805Z,4.40
2024-05-09T07:38:33.777Z,3.80
2024-05-09T07:39:33.720Z,4.10
2024-05-09T07:40:36.545Z,4.00
2024-05-09T07:41:33.924Z,3.90
2024-05-09T07:42:33.859Z,3.80
2024-05-09T07:43:33.689Z,3.80
2024-05-09T07:44:33.744Z,3.80
2024-05-09T07:50:34.292Z,3.80
2024-05-09T07:52:23.114Z,4.00
2024-05-09T07:53:33.202Z,3.80
2024-05-09T07:53:42.057Z,3.50
2024-05-09T07:54:34.714Z,4.00
2024-05-09T07:55:33.621Z,3.70
2024-05-09T07:56:33.641Z,3.80
2024-05-09T07:57:33.529Z,3.30
2024-05-09T07:58:33.536Z,3.50
2024-05-09T07:59:37.628Z,3.60
2024-05-09T08:00:33.649Z,3.70
2024-05-09T08:01:33.658Z,3.50
2024-05-09T08:02:33.693Z,3.50
2024-05-09T08:03:33.749Z,3.20
2024-05-09T08:04:33.603Z,3.50
2024-05-09T08:05:33.636Z,3.40
2024-05-09T08:06:33.471Z,3.10
2024-05-09T08:07:33.438Z,3.40
2024-05-09T08:08:33.422Z,3.20
2024-05-09T08:09:34.656Z,2.80
2024-05-09T08:10:33.394Z,3.00
2024-05-09T08:11:33.410Z,3.20
2024-05-09T08:12:33.368Z,3.40
2024-05-09T08:13:33.372Z,3.20
2024-05-09T08:14:33.377Z,2.90
2024-05-09T08:15:33.382Z,3.50
2024-05-09T08:16:33.379Z,2.80
2024-05-09T08:17:33.444Z,3.00
2024-05-09T08:18:33.573Z,3.50
2024-05-09T08:19:33.293Z,2.90
2024-05-09T08:20:35.310Z,3.40
2024-05-09T08:21:33.307Z,2.90
2024-05-09T08:22:33.239Z,3.00
2024-05-09T08:23:33.239Z,2.40
2024-05-09T08:24:33.255Z,2.20
2024-05-09T08:25:33.219Z,2.50
2024-05-09T08:26:33.221Z,2.50
2024-05-09T08:27:33.231Z,2.80
2024-05-09T08:28:33.198Z,2.90
2024-05-09T08:29:33.171Z,2.60
2024-05-09T08:30:37.007Z,3.00
2024-05-09T08:31:34.317Z,2.50
2024-05-09T08:32:33.214Z,2.40
2024-05-09T08:33:33.442Z,2.50
2024-05-09T08:34:33.234Z,2.50
2024-05-09T08:35:33.123Z,2.40
2024-05-09T08:36:33.144Z,2.40
2024-05-09T08:37:37.919Z,2.80
2024-05-09T08:38:33.103Z,2.40
2024-05-09T08:39:33.120Z,2.70
2024-05-09T08:40:35.984Z,2.50
2024-05-09T08:41:33.055Z,3.10
2024-05-09T08:42:33.075Z,3.00
2024-05-09T08:43:33.018Z,2.70
2024-05-09T08:44:33.031Z,2.70
2024-05-09T08:45:33.007Z,2.70
2024-05-09T08:46:33.053Z,3.50
2024-05-09T08:47:33.016Z,3.10
2024-05-09T08:48:33.286Z,2.70
2024-05-09T08:49:33.016Z,2.60
2024-05-09T08:50:38.494Z,2.60
2024-05-09T08:51:33.955Z,2.90
2024-05-09T08:52:32.913Z,3.20
2024-05-09T08:53:32.899Z,3.30
2024-05-09T08:54:32.901Z,2.50
2024-05-09T08:55:32.954Z,3.20
2024-05-09T08:56:32.918Z,3.00
2024-05-09T08:57:32.892Z,2.70
2024-05-09T08:58:32.844Z,3.10
2024-05-09T08:59:32.865Z,3.00
2024-05-09T09:00:36.968Z,2.80
2024-05-09T09:01:33.921Z,2.80
2024-05-09T09:02:33.331Z,2.80
2024-05-09T09:03:32.977Z,2.80
2024-05-09T09:04:32.888Z,2.70
2024-05-09T09:05:32.915Z,3.00
2024-05-09T09:06:32.765Z,2.70
2024-05-09T09:07:32.787Z,2.80
2024-05-09T09:08:32.783Z,2.80
2024-05-09T09:09:32.761Z,2.50
2024-05-09T09:10:33.471Z,2.40
2024-05-09T09:11:32.771Z,2.70
2024-05-09T09:12:32.751Z,3.10
2024-05-09T09:13:32.684Z,2.60
2024-05-09T09:14:32.713Z,2.80
2024-05-09T09:15:33.209Z,2.90
2024-05-09T09:16:32.694Z,3.10
2024-05-09T09:17:32.749Z,3.10
2024-05-09T09:18:33.047Z,3.10
2024-05-09T09:19:32.673Z,3.00
2024-05-09T09:20:36.514Z,3.00
2024-05-09T09:21:32.671Z,3.00
2024-05-09T09:22:32.573Z,2.80
2024-05-09T09:23:32.580Z,2.80
2024-05-09T09:24:32.710Z,2.70
2024-05-09T09:25:32.534Z,2.60
2024-05-09T09:26:32.548Z,2.50
2024-05-09T09:27:32.533Z,3.20
2024-05-09T09:28:32.527Z,3.00
2024-05-09T09:29:32.495Z,2.80
2024-05-09T09:30:37.299Z,2.60
2024-05-09T09:31:32.501Z,3.20
2024-05-09T09:32:32.578Z,3.20
2024-05-09T09:33:32.964Z,3.10
2024-05-09T09:34:32.681Z,3.70
2024-05-09T09:35:32.429Z,3.00
2024-05-09T09:36:32.448Z,2.80
2024-05-09T09:37:32.421Z,3.30
2024-05-09T09:38:32.459Z,3.50
2024-05-09T09:39:32.428Z,3.20
2024-05-09T09:40:34.806Z,3.20
2024-05-09T09:41:32.365Z,2.60
2024-05-09T09:42:32.426Z,3.40
2024-05-09T09:43:32.344Z,3.10
2024-05-09T09:44:33.071Z,3.20
2024-05-09T09:45:32.370Z,3.10
2024-05-09T09:46:32.343Z,3.50
2024-05-09T09:47:32.418Z,3.90
2024-05-09T09:48:32.526Z,3.90
2024-05-09T09:49:32.338Z,3.90
2024-05-09T09:50:34.805Z,3.90
2024-05-09T09:51:32.286Z,3.70
2024-05-09T09:52:32.347Z,4.50
2024-05-09T09:53:32.222Z,4.20
2024-05-09T09:54:32.305Z,4.00
2024-05-09T09:55:32.202Z,4.40
2024-05-09T09:56:32.232Z,5.20
2024-05-09T09:57:32.253Z,5.30
2024-05-09T09:58:32.209Z,5.00
2024-05-09T09:59:32.157Z,4.80
2024-05-09T10:00:33.491Z,5.00
2024-05-09T10:01:32.269Z,4.90
2024-05-09T10:02:32.352Z,4.70
2024-05-09T10:03:32.347Z,5.20
2024-05-09T10:04:32.213Z,4.70
2024-05-09T10:05:32.316Z,5.30
2024-05-09T10:06:32.139Z,5.10
2024-05-09T10:07:32.071Z,4.60
2024-05-09T10:08:32.075Z,5.00
2024-05-09T10:09:32.120Z,4.80
2024-05-09T10:10:33.230Z,4.90
2024-05-09T10:11:34.897Z,5.80
2024-05-09T10:12:33.219Z,5.20
2024-05-09T10:13:32.059Z,5.10
2024-05-09T10:14:31.996Z,4.50
2024-05-09T10:15:32.020Z,4.40
2024-05-09T10:16:32.033Z,4.60
2024-05-09T10:17:32.024Z,4.40
2024-05-09T10:18:34.122Z,4.50
2024-05-09T10:19:32.138Z,4.50
2024-05-09T10:20:32.952Z,4.30
2024-05-09T10:21:31.943Z,4.20
2024-05-09T10:22:31.902Z,4.30
2024-05-09T10:23:31.883Z,4.00
2024-05-09T10:24:31.918Z,4.60
2024-05-09T10:25:31.968Z,4.00
2024-05-09T10:26:31.847Z,3.90
2024-05-09T10:27:31.903Z,4.00
2024-05-09T10:28:31.875Z,4.40
2024-05-09T10:29:31.824Z,4.30
2024-05-09T10:30:35.966Z,3.90
2024-05-09T10:31:31.846Z,4.30
2024-05-09T10:32:31.837Z,4.30
2024-05-09T10:33:31.940Z,4.60
2024-05-09T10:34:31.965Z,4.20
2024-05-09T10:35:31.730Z,4.90
2024-05-09T10:36:31.742Z,4.00
2024-05-09T10:37:31.823Z,4.10
2024-05-09T10:38:31.735Z,4.20
2024-05-09T10:39:31.794Z,3.70
2024-05-09T10:40:32.242Z,4.20
2024-05-09T10:41:31.663Z,4.20
2024-05-09T10:42:31.768Z,4.10
2024-05-09T10:43:31.734Z,3.80
2024-05-09T10:44:31.654Z,4.70
2024-05-09T10:45:31.657Z,3.90
2024-05-09T10:46:31.751Z,3.50
2024-05-09T10:47:31.704Z,3.20
2024-05-09T10:48:31.684Z,3.60
2024-05-09T10:49:31.673Z,3.60
2024-05-09T10:50:34.271Z,3.60
2024-05-09T10:51:31.562Z,3.50
2024-05-09T10:52:31.556Z,3.50
2024-05-09T10:53:31.536Z,3.50
2024-05-09T10:54:31.548Z,3.60
2024-05-09T10:55:31.585Z,3.20
2024-05-09T10:56:31.503Z,2.70
2024-05-09T10:57:31.524Z,2.70
2024-05-09T10:58:31.471Z,2.60
2024-05-09T10:59:31.467Z,2.80
2024-05-09T11:00:35.769Z,3.10
2024-05-09T11:01:31.575Z,2.80
2024-05-09T11:02:31.661Z,2.80
2024-05-09T11:03:31.586Z,3.00
2024-05-09T11:04:31.540Z,2.80
2024-05-09T11:05:31.501Z,3.10
2024-05-09T11:06:31.441Z,3.20
2024-05-09T11:07:31.446Z,3.00
2024-05-09T11:08:31.373Z,3.20
2024-05-09T11:09:31.357Z,3.10
2024-05-09T11:10:33.992Z,2.90
2024-05-09T11:11:31.403Z,2.90
2024-05-09T11:12:31.392Z,3.00
2024-05-09T11:13:31.615Z,2.70
2024-05-09T11:14:31.322Z,2.60
2024-05-09T11:15:31.345Z,3.00
2024-05-09T11:16:31.377Z,2.90
2024-05-09T11:17:31.337Z,3.00
2024-05-09T11:18:35.107Z,2.90
2024-05-09T11:19:32.338Z,2.70
2024-05-09T11:20:34.829Z,3.40
2024-05-09T11:21:31.260Z,2.60
2024-05-09T11:22:31.213Z,2.70
2024-05-09T11:23:31.191Z,2.50
2024-05-09T11:24:31.195Z,2.80
2024-05-09T11:25:31.213Z,2.40
2024-05-09T11:26:31.172Z,2.60
2024-05-09T11:27:31.182Z,2.50
2024-05-09T11:28:31.133Z,2.20
2024-05-09T11:29:31.133Z,2.50
2024-05-09T11:30:32.368Z,2.60
2024-05-09T11:31:31.360Z,3.00
2024-05-09T11:32:31.276Z,2.90
2024-05-09T11:33:31.161Z,2.80
2024-05-09T11:34:31.171Z,2.90
2024-05-09T11:35:31.055Z,2.80
2024-05-09T11:36:31.126Z,2.90
2024-05-09T11:37:34.041Z,2.50
2024-05-09T11:38:31.019Z,2.30
2024-05-09T11:39:31.064Z,2.30
2024-05-09T11:40:34.319Z,2.50
2024-05-09T11:41:31.001Z,2.50
2024-05-09T11:42:31.041Z,2.50
2024-05-09T11:43:31.087Z,2.80
2024-05-09T11:44:30.959Z,2.70
2024-05-09T11:45:31.030Z,2.50
2024-05-09T11:46:30.971Z,2.40
2024-05-09T11:47:39.050Z,1.90
2024-05-09T11:48:31.544Z,1.80
2024-05-09T11:49:30.990Z,1.70
2024-05-09T11:50:35.325Z,1.90
2024-05-09T11:51:31.989Z,1.90
2024-05-09T11:52:30.904Z,1.90
2024-05-09T11:53:30.879Z,1.70
2024-05-09T11:54:30.924Z,1.80
2024-05-09T11:55:31.036Z,1.60
2024-05-09T11:56:30.896Z,1.60
2024-05-09T11:57:30.983Z,1.70
2024-05-09T11:58:30.822Z,1.70
2024-05-09T11:59:30.845Z,1.80
2024-05-09T12:00:36.618Z,2.60
2024-05-09T12:01:32.124Z,2.10
2024-05-09T12:02:30.909Z,2.10
2024-05-09T12:03:30.934Z,2.10
2024-05-09T12:04:30.829Z,2.20
2024-05-09T12:05:30.824Z,2.40
2024-05-09T12:06:30.791Z,2.10
2024-05-09T12:07:30.823Z,2.00
2024-05-09T12:08:30.712Z,2.30
2024-05-09T12:09:30.708Z,2.40
2024-05-09T12:10:33.841Z,2.00
2024-05-09T12:11:31.725Z,2.20
2024-05-09T12:12:30.691Z,1.80
2024-05-09T12:13:30.669Z,1.80
2024-05-09T12:14:30.683Z,1.60
2024-05-09T12:15:30.712Z,1.80
2024-05-09T12:16:30.709Z,1.40
2024-05-09T12:17:30.648Z,1.40
2024-05-09T12:18:30.696Z,1.60
2024-05-09T12:19:30.636Z,1.70
2024-05-09T12:21:30.579Z,1.50
2024-05-09T12:22:30.526Z,1.80
2024-05-09T12:23:30.522Z,1.40
2024-05-09T12:24:30.565Z,1.10
2024-05-09T12:25:30.545Z,1.30
2024-05-09T12:26:30.567Z,1.30
2024-05-09T12:27:30.543Z,1.30
2024-05-09T12:28:30.512Z,1.20
2024-05-09T12:29:30.475Z,1.10
2024-05-09T12:30:36.651Z,1.20
2024-05-09T12:31:31.563Z,1.40
2024-05-09T12:32:30.504Z,1.50
2024-05-09T12:33:30.458Z,1.20
2024-05-09T12:34:30.462Z,1.20
2024-05-09T12:35:30.398Z,1.20
2024-05-09T12:36:30.470Z,1.30
2024-05-09T12:37:30.382Z,1.70
2024-05-09T12:38:30.396Z,1.50
2024-05-09T12:39:30.780Z,1.20
2024-05-09T12:40:36.231Z,1.80
2024-05-09T12:41:31.312Z,1.70
2024-05-09T12:42:32.530Z,2.00
2024-05-09T12:43:30.404Z,1.80
2024-05-09T12:44:30.326Z,1.60
2024-05-09T12:45:30.320Z,1.80
2024-05-09T12:46:30.345Z,1.50
2024-05-09T12:47:30.349Z,2.00
2024-05-09T12:48:30.397Z,1.90
2024-05-09T12:49:30.390Z,1.80
2024-05-09T12:50:33.126Z,1.90
2024-05-09T12:51:30.264Z,1.80
2024-05-09T12:52:30.218Z,1.60
2024-05-09T12:53:30.201Z,1.50
2024-05-09T12:54:30.231Z,1.80
2024-05-09T12:55:36.411Z,1.60
2024-05-09T12:56:31.149Z,1.60
2024-05-09T12:57:30.193Z,2.00
2024-05-09T12:58:30.169Z,1.60
2024-05-09T12:59:30.156Z,1.70
2024-05-09T13:00:33.778Z,1.80
2024-05-09T13:01:30.291Z,2.00
2024-05-09T13:02:30.339Z,1.60
2024-05-09T13:03:30.257Z,1.80
2024-05-09T13:04:30.151Z,1.80
2024-05-09T13:05:30.491Z,1.90
2024-05-09T13:06:30.093Z,2.00
2024-05-09T13:07:30.060Z,1.50
2024-05-09T13:08:30.062Z,1.80
2024-05-09T13:09:30.104Z,1.90
2024-05-09T13:10:32.748Z,1.90
2024-05-09T13:11:30.108Z,1.90
2024-05-09T13:12:30.127Z,1.90
2024-05-09T13:13:30.013Z,1.80
2024-05-09T13:14:29.959Z,1.90
2024-05-09T13:15:30.116Z,1.60
2024-05-09T13:16:30.039Z,1.80
2024-05-09T13:17:30.094Z,1.80
2024-05-09T13:18:30.148Z,2.00
2024-05-09T13:19:29.976Z,1.80
2024-05-09T13:20:33.452Z,1.70
2024-05-09T13:21:30.930Z,1.80
2024-05-09T13:22:29.884Z,1.90
2024-05-09T13:23:29.880Z,2.40
2024-05-09T13:24:29.980Z,2.20